Portada
METAR-TAF:

METAR-TAF

Aeroports :

Sapporo, Japó

latitud: 43-07N, longitud: 141-23E, altitud: 8 m

Observació

L'informe es va fer fa 7 hores i 29 minuts, a les 11:00 UTC
Vent 8 kt del Est/Sud-Est
Temperatura 3°C
Humitat 93%
Pressió 992 hPa
Visibilitat: 8000 m
Escasses núvols a una alçada de 500 ft
Núvols disperses a una alçada de 1000 ft
Cel ennuvolat a una alçada de 2000 ft
xàfecs de pluja

METAR: RJCO 211100Z 11008KT 8000 -SHRA FEW005 SCT010 BKN020 03/02 Q0992

Hora: 03:29 (18:29 UTC)


TAF: manca

Observacions i pronòstics meteorològics de més de 4000 aeroports (METAR i TAF).

Les estacions disponibles són els punts grocs i vermells al mapa.

Posi el ratolí al punt desitjat per veure el nom de l'estació.

Feu clic per veure les observacions i els pronòstics meteorològics.

Per canviar el mapa: feu clic els botons verds amb una creu de color negre per apropar; al botó verd amb un guió per allunyar la imatge; o en les fletxes verdes per a mapes adjacents.


METAR-TAF: